sensor_id;sensor_type;location;lat;lon;timestamp;pressure;altitude;pressure_sealevel;temperature;humidity
79686;BME280;69153;47.918;11.428;2023-07-31T00:01:54;95319.59;;;20.74;49.03
79686;BME280;69153;47.918;11.428;2023-07-31T00:04:20;95318.59;;;20.72;48.87
79686;BME280;69153;47.918;11.428;2023-07-31T00:06:45;95317.41;;;20.78;48.26
79686;BME280;69153;47.918;11.428;2023-07-31T00:09:10;95318.59;;;20.72;48.44
79686;BME280;69153;47.918;11.428;2023-07-31T00:11:36;95318.59;;;20.72;48.29
79686;BME280;69153;47.918;11.428;2023-07-31T00:14:01;95313.22;;;20.72;48.89
79686;BME280;69153;47.918;11.428;2023-07-31T00:16:27;95315.13;;;20.65;48.85
79686;BME280;69153;47.918;11.428;2023-07-31T00:18:53;95306.34;;;20.71;48.58
79686;BME280;69153;47.918;11.428;2023-07-31T00:21:18;95310.47;;;20.66;49.35
79686;BME280;69153;47.918;11.428;2023-07-31T00:23:44;95300.19;;;20.64;48.64
79686;BME280;69153;47.918;11.428;2023-07-31T00:26:09;95298.34;;;20.45;49.18
79686;BME280;69153;47.918;11.428;2023-07-31T00:28:34;95300.38;;;20.29;49.67
79686;BME280;69153;47.918;11.428;2023-07-31T00:31:00;95299.03;;;20.40;49.51
79686;BME280;69153;47.918;11.428;2023-07-31T00:33:27;95307.09;;;20.40;49.55
79686;BME280;69153;47.918;11.428;2023-07-31T00:35:52;95305.94;;;20.46;49.83
79686;BME280;69153;47.918;11.428;2023-07-31T00:38:17;95301.03;;;20.45;50.02
79686;BME280;69153;47.918;11.428;2023-07-31T00:40:43;95296.84;;;20.44;50.13
79686;BME280;69153;47.918;11.428;2023-07-31T00:43:08;95289.31;;;20.48;50.66
79686;BME280;69153;47.918;11.428;2023-07-31T00:45:34;95291.53;;;20.49;50.83
79686;BME280;69153;47.918;11.428;2023-07-31T00:48:00;95287.34;;;20.48;50.37
79686;BME280;69153;47.918;11.428;2023-07-31T00:50:28;95289.06;;;20.46;50.26
79686;BME280;69153;47.918;11.428;2023-07-31T00:52:54;95282.66;;;20.43;50.55
79686;BME280;69153;47.918;11.428;2023-07-31T00:55:19;95284.66;;;20.48;50.33
79686;BME280;69153;47.918;11.428;2023-07-31T00:57:48;95280.97;;;20.46;51.22
79686;BME280;69153;47.918;11.428;2023-07-31T01:00:13;95277.50;;;20.40;51.19
79686;BME280;69153;47.918;11.428;2023-07-31T01:02:39;95278.28;;;20.46;51.07
79686;BME280;69153;47.918;11.428;2023-07-31T01:05:05;95273.63;;;20.46;51.71
79686;BME280;69153;47.918;11.428;2023-07-31T01:07:35;95276.06;;;20.44;51.51
79686;BME280;69153;47.918;11.428;2023-07-31T01:10:12;95271.88;;;20.38;50.36
79686;BME280;69153;47.918;11.428;2023-07-31T01:12:41;95277.16;;;20.32;50.19
79686;BME280;69153;47.918;11.428;2023-07-31T01:15:09;95273.25;;;20.33;50.21
79686;BME280;69153;47.918;11.428;2023-07-31T01:17:39;95278.22;;;20.40;49.91
79686;BME280;69153;47.918;11.428;2023-07-31T01:20:11;95270.16;;;20.40;50.68
79686;BME280;69153;47.918;11.428;2023-07-31T01:28:02;95258.72;;;20.19;51.20
79686;BME280;69153;47.918;11.428;2023-07-31T01:30:32;95250.94;;;20.27;51.26
79686;BME280;69153;47.918;11.428;2023-07-31T01:33:02;95249.31;;;20.35;51.28
79686;BME280;69153;47.918;11.428;2023-07-31T01:35:33;95253.28;;;20.40;51.30
79686;BME280;69153;47.918;11.428;2023-07-31T01:37:59;95256.97;;;20.42;51.30
79686;BME280;69153;47.918;11.428;2023-07-31T01:40:24;95254.78;;;20.46;52.04
79686;BME280;69153;47.918;11.428;2023-07-31T01:42:50;95255.28;;;20.45;52.19
79686;BME280;69153;47.918;11.428;2023-07-31T01:45:15;95253.09;;;20.49;52.31
79686;BME280;69153;47.918;11.428;2023-07-31T01:47:41;95259.69;;;20.48;51.62
79686;BME280;69153;47.918;11.428;2023-07-31T01:50:06;95254.28;;;20.42;52.58
79686;BME280;69153;47.918;11.428;2023-07-31T01:52:32;95245.72;;;20.44;52.23
79686;BME280;69153;47.918;11.428;2023-07-31T01:54:57;95250.34;;;20.38;52.76
79686;BME280;69153;47.918;11.428;2023-07-31T01:57:23;95244.13;;;20.31;52.84
79686;BME280;69153;47.918;11.428;2023-07-31T01:59:48;95246.31;;;20.27;52.76
79686;BME280;69153;47.918;11.428;2023-07-31T02:02:15;95254.84;;;20.26;53.19
79686;BME280;69153;47.918;11.428;2023-07-31T02:04:41;95255.09;;;20.22;53.09
79686;BME280;69153;47.918;11.428;2023-07-31T02:07:06;95245.00;;;20.17;53.21
79686;BME280;69153;47.918;11.428;2023-07-31T02:09:32;95250.13;;;20.15;52.94
79686;BME280;69153;47.918;11.428;2023-07-31T02:11:57;95247.69;;;20.17;52.71
79686;BME280;69153;47.918;11.428;2023-07-31T02:14:23;95239.06;;;20.08;52.73
79686;BME280;69153;47.918;11.428;2023-07-31T02:16:48;95237.06;;;20.03;52.72
79686;BME280;69153;47.918;11.428;2023-07-31T02:19:14;95236.59;;;20.04;52.54
79686;BME280;69153;47.918;11.428;2023-07-31T02:21:39;95232.63;;;19.99;52.59
79686;BME280;69153;47.918;11.428;2023-07-31T02:24:05;95237.03;;;19.97;53.15
79686;BME280;69153;47.918;11.428;2023-07-31T02:26:30;95237.81;;;20.03;53.23
79686;BME280;69153;47.918;11.428;2023-07-31T02:28:56;95231.75;;;20.08;52.75
79686;BME280;69153;47.918;11.428;2023-07-31T02:31:21;95226.16;;;20.12;52.77
79686;BME280;69153;47.918;11.428;2023-07-31T02:33:47;95228.03;;;20.06;53.14
79686;BME280;69153;47.918;11.428;2023-07-31T02:36:12;95222.94;;;20.08;53.02
79686;BME280;69153;47.918;11.428;2023-07-31T02:38:38;95229.00;;;20.03;53.06
79686;BME280;69153;47.918;11.428;2023-07-31T02:41:03;95223.19;;;20.10;52.84
79686;BME280;69153;47.918;11.428;2023-07-31T02:43:29;95216.41;;;19.88;53.42
79686;BME280;69153;47.918;11.428;2023-07-31T02:45:54;95214.63;;;19.80;53.65
79686;BME280;69153;47.918;11.428;2023-07-31T02:48:20;95213.94;;;19.85;53.68
79686;BME280;69153;47.918;11.428;2023-07-31T02:50:45;95218.78;;;19.81;53.50
79686;BME280;69153;47.918;11.428;2023-07-31T02:53:11;95211.41;;;19.76;53.16
79686;BME280;69153;47.918;11.428;2023-07-31T02:55:36;95203.94;;;19.39;53.80
79686;BME280;69153;47.918;11.428;2023-07-31T02:58:02;95202.78;;;19.20;54.47
79686;BME280;69153;47.918;11.428;2023-07-31T03:00:27;95205.63;;;19.37;54.08
79686;BME280;69153;47.918;11.428;2023-07-31T03:02:53;95207.56;;;19.36;54.25
79686;BME280;69153;47.918;11.428;2023-07-31T03:05:19;95203.06;;;19.48;53.90
79686;BME280;69153;47.918;11.428;2023-07-31T03:07:44;95207.09;;;19.58;53.57
79686;BME280;69153;47.918;11.428;2023-07-31T03:10:09;95199.50;;;19.56;53.88
79686;BME280;69153;47.918;11.428;2023-07-31T03:12:35;95207.50;;;19.51;53.89
79686;BME280;69153;47.918;11.428;2023-07-31T03:15:00;95202.00;;;19.60;53.77
79686;BME280;69153;47.918;11.428;2023-07-31T03:17:26;95199.50;;;19.56;53.69
79686;BME280;69153;47.918;11.428;2023-07-31T03:19:51;95206.63;;;19.59;53.71
79686;BME280;69153;47.918;11.428;2023-07-31T03:22:17;95203.88;;;19.54;53.92
79686;BME280;69153;47.918;11.428;2023-07-31T03:24:42;95199.72;;;19.53;54.12
79686;BME280;69153;47.918;11.428;2023-07-31T03:27:08;95207.78;;;19.53;54.02
79686;BME280;69153;47.918;11.428;2023-07-31T03:29:33;95208.53;;;19.53;54.42
79686;BME280;69153;47.918;11.428;2023-07-31T03:31:58;95207.78;;;19.53;54.21
79686;BME280;69153;47.918;11.428;2023-07-31T03:34:24;95207.03;;;19.52;54.53
79686;BME280;69153;47.918;11.428;2023-07-31T03:36:50;95214.84;;;19.50;54.63
79686;BME280;69153;47.918;11.428;2023-07-31T03:39:15;95213.34;;;19.49;54.93
79686;BME280;69153;47.918;11.428;2023-07-31T03:41:40;95219.28;;;19.53;55.24
79686;BME280;69153;47.918;11.428;2023-07-31T03:44:06;95221.50;;;19.55;55.56
79686;BME280;69153;47.918;11.428;2023-07-31T03:46:31;95223.56;;;19.45;55.90
79686;BME280;69153;47.918;11.428;2023-07-31T03:48:57;95221.34;;;19.44;56.12
79686;BME280;69153;47.918;11.428;2023-07-31T03:51:22;95229.16;;;19.42;56.42
79686;BME280;69153;47.918;11.428;2023-07-31T03:53:48;95220.97;;;19.31;56.53
79686;BME280;69153;47.918;11.428;2023-07-31T03:56:13;95215.41;;;19.34;56.41
79686;BME280;69153;47.918;11.428;2023-07-31T03:58:39;95226.44;;;19.42;56.18
79686;BME280;69153;47.918;11.428;2023-07-31T04:01:04;95222.81;;;19.45;56.03
79686;BME280;69153;47.918;11.428;2023-07-31T04:03:30;95213.75;;;19.42;55.92
79686;BME280;69153;47.918;11.428;2023-07-31T04:05:56;95218.13;;;19.40;55.92
79686;BME280;69153;47.918;11.428;2023-07-31T04:08:22;95224.72;;;19.39;55.93
79686;BME280;69153;47.918;11.428;2023-07-31T04:10:48;95218.19;;;19.45;56.01
79686;BME280;69153;47.918;11.428;2023-07-31T04:13:14;95222.22;;;19.35;56.16
79686;BME280;69153;47.918;11.428;2023-07-31T04:15:39;95213.50;;;19.40;55.78
79686;BME280;69153;47.918;11.428;2023-07-31T04:18:05;95208.13;;;19.40;55.81
79686;BME280;69153;47.918;11.428;2023-07-31T04:20:30;95208.47;;;19.27;56.27
79686;BME280;69153;47.918;11.428;2023-07-31T04:22:56;95219.75;;;19.32;56.04
79686;BME280;69153;47.918;11.428;2023-07-31T04:25:21;95223.59;;;19.25;55.57
79686;BME280;69153;47.918;11.428;2023-07-31T04:27:47;95209.81;;;18.97;56.05
79686;BME280;69153;47.918;11.428;2023-07-31T04:30:12;95209.31;;;18.93;56.23
79686;BME280;69153;47.918;11.428;2023-07-31T04:32:38;95209.38;;;18.78;56.56
79686;BME280;69153;47.918;11.428;2023-07-31T04:35:03;95203.94;;;18.93;56.07
79686;BME280;69153;47.918;11.428;2023-07-31T04:37:29;95210.84;;;19.00;55.62
79686;BME280;69153;47.918;11.428;2023-07-31T04:39:54;95205.53;;;19.05;55.21
79686;BME280;69153;47.918;11.428;2023-07-31T04:42:20;95210.19;;;19.05;55.15
79686;BME280;69153;47.918;11.428;2023-07-31T04:44:45;95203.19;;;19.13;55.01
79686;BME280;69153;47.918;11.428;2023-07-31T04:47:11;95202.91;;;19.11;55.01
79686;BME280;69153;47.918;11.428;2023-07-31T04:49:36;95198.44;;;18.82;55.85
79686;BME280;69153;47.918;11.428;2023-07-31T04:52:02;95192.66;;;18.69;56.19
79686;BME280;69153;47.918;11.428;2023-07-31T04:54:27;95193.88;;;18.88;55.61
79686;BME280;69153;47.918;11.428;2023-07-31T04:56:53;95193.06;;;19.02;55.36
79686;BME280;69153;47.918;11.428;2023-07-31T04:59:18;95194.13;;;18.90;55.42
79686;BME280;69153;47.918;11.428;2023-07-31T05:01:44;95198.56;;;18.93;55.42
79686;BME280;69153;47.918;11.428;2023-07-31T05:04:12;95196.75;;;19.05;55.41
79686;BME280;69153;47.918;11.428;2023-07-31T05:06:38;95203.44;;;19.15;55.21
79686;BME280;69153;47.918;11.428;2023-07-31T05:09:03;95202.25;;;19.16;55.11
79686;BME280;69153;47.918;11.428;2023-07-31T05:11:29;95201.81;;;19.23;54.85
79686;BME280;69153;47.918;11.428;2023-07-31T05:13:54;95211.09;;;19.22;55.07
79686;BME280;69153;47.918;11.428;2023-07-31T05:16:20;95214.47;;;19.17;55.16
79686;BME280;69153;47.918;11.428;2023-07-31T05:18:45;95211.38;;;18.83;55.80
79686;BME280;69153;47.918;11.428;2023-07-31T05:21:11;95210.56;;;18.98;55.51
79686;BME280;69153;47.918;11.428;2023-07-31T05:23:36;95214.38;;;19.11;55.23
79686;BME280;69153;47.918;11.428;2023-07-31T05:26:07;95213.56;;;19.25;54.73
79686;BME280;69153;47.918;11.428;2023-07-31T05:28:36;95215.44;;;19.40;54.25
79686;BME280;69153;47.918;11.428;2023-07-31T05:31:03;95212.81;;;19.45;54.20
79686;BME280;69153;47.918;11.428;2023-07-31T05:33:29;95209.94;;;19.49;54.50
79686;BME280;69153;47.918;11.428;2023-07-31T05:35:55;95206.78;;;19.50;53.97
79686;BME280;69153;47.918;11.428;2023-07-31T05:38:23;95205.47;;;19.00;55.24
79686;BME280;69153;47.918;11.428;2023-07-31T05:40:49;95206.13;;;18.74;56.21
79686;BME280;69153;47.918;11.428;2023-07-31T05:43:14;95199.56;;;18.96;55.84
79686;BME280;69153;47.918;11.428;2023-07-31T05:45:41;95202.72;;;18.74;56.29
79686;BME280;69153;47.918;11.428;2023-07-31T05:48:07;95210.75;;;18.74;56.17
79686;BME280;69153;47.918;11.428;2023-07-31T05:50:32;95209.00;;;18.71;56.41
79686;BME280;69153;47.918;11.428;2023-07-31T05:52:57;95207.81;;;18.72;56.29
79686;BME280;69153;47.918;11.428;2023-07-31T05:55:24;95201.91;;;18.68;56.36
79686;BME280;69153;47.918;11.428;2023-07-31T05:57:52;95202.59;;;19.03;55.20
79686;BME280;69153;47.918;11.428;2023-07-31T06:00:17;95200.44;;;18.87;55.88
79686;BME280;69153;47.918;11.428;2023-07-31T06:02:43;95188.16;;;19.01;55.70
79686;BME280;69153;47.918;11.428;2023-07-31T06:05:08;95193.25;;;19.19;54.94
79686;BME280;69153;47.918;11.428;2023-07-31T06:07:34;95188.09;;;18.95;55.20
79686;BME280;69153;47.918;11.428;2023-07-31T06:09:59;95189.56;;;18.76;56.50
79686;BME280;69153;47.918;11.428;2023-07-31T06:12:34;95182.97;;;18.97;55.93
79686;BME280;69153;47.918;11.428;2023-07-31T06:15:00;95189.50;;;19.37;55.09
79686;BME280;69153;47.918;11.428;2023-07-31T06:17:26;95203.47;;;19.41;54.67
79686;BME280;69153;47.918;11.428;2023-07-31T06:19:52;95200.53;;;19.59;54.42
79686;BME280;69153;47.918;11.428;2023-07-31T06:22:17;95196.72;;;19.71;54.10
79686;BME280;69153;47.918;11.428;2023-07-31T06:24:43;95200.34;;;19.99;53.72
79686;BME280;69153;47.918;11.428;2023-07-31T06:27:10;95199.53;;;19.88;50.94
79686;BME280;69153;47.918;11.428;2023-07-31T06:29:36;95199.31;;;19.91;51.69
79686;BME280;69153;47.918;11.428;2023-07-31T06:32:02;95196.38;;;20.21;50.74
79686;BME280;69153;47.918;11.428;2023-07-31T06:34:28;95198.16;;;19.98;50.13
79686;BME280;69153;47.918;11.428;2023-07-31T06:36:53;95196.03;;;20.08;49.53
79686;BME280;69153;47.918;11.428;2023-07-31T06:39:18;95196.78;;;20.08;49.28
79686;BME280;69153;47.918;11.428;2023-07-31T06:41:44;95198.94;;;20.04;49.27
79686;BME280;69153;47.918;11.428;2023-07-31T06:44:10;95199.22;;;20.43;49.17
79686;BME280;69153;47.918;11.428;2023-07-31T06:46:36;95202.88;;;20.40;48.37
79686;BME280;69153;47.918;11.428;2023-07-31T06:49:01;95201.44;;;20.45;47.97
79686;BME280;69153;47.918;11.428;2023-07-31T06:51:27;95202.34;;;20.73;47.55
79686;BME280;69153;47.918;11.428;2023-07-31T06:53:52;95200.91;;;20.83;47.42
79686;BME280;69153;47.918;11.428;2023-07-31T06:56:18;95199.75;;;20.47;48.15
79686;BME280;69153;47.918;11.428;2023-07-31T06:58:43;95201.53;;;20.61;47.54
79686;BME280;69153;47.918;11.428;2023-07-31T07:01:09;95197.78;;;20.48;47.90
79686;BME280;69153;47.918;11.428;2023-07-31T07:03:34;95187.09;;;20.27;49.18
79686;BME280;69153;47.918;11.428;2023-07-31T07:06:00;95184.78;;;20.09;49.24
79686;BME280;69153;47.918;11.428;2023-07-31T07:08:25;95189.47;;;20.14;49.98
79686;BME280;69153;47.918;11.428;2023-07-31T07:10:51;95183.59;;;20.47;48.84
79686;BME280;69153;47.918;11.428;2023-07-31T07:13:16;95186.22;;;20.36;49.09
79686;BME280;69153;47.918;11.428;2023-07-31T07:15:48;95176.59;;;20.24;49.69
79686;BME280;69153;47.918;11.428;2023-07-31T07:18:13;95184.03;;;20.40;49.71
79686;BME280;69153;47.918;11.428;2023-07-31T07:20:39;95185.13;;;20.65;49.17
79686;BME280;69153;47.918;11.428;2023-07-31T07:23:05;95191.59;;;20.84;49.04
79686;BME280;69153;47.918;11.428;2023-07-31T07:25:30;95191.47;;;20.56;48.60
79686;BME280;69153;47.918;11.428;2023-07-31T07:27:56;95185.97;;;20.82;48.91
79686;BME280;69153;47.918;11.428;2023-07-31T07:30:21;95182.53;;;20.82;48.76
79686;BME280;69153;47.918;11.428;2023-07-31T07:32:46;95185.53;;;20.89;47.89
79686;BME280;69153;47.918;11.428;2023-07-31T07:35:12;95181.69;;;21.13;47.75
79686;BME280;69153;47.918;11.428;2023-07-31T07:37:37;95182.28;;;20.80;47.28
79686;BME280;69153;47.918;11.428;2023-07-31T07:40:03;95177.59;;;20.32;48.33
79686;BME280;69153;47.918;11.428;2023-07-31T07:42:29;95175.53;;;20.16;49.51
79686;BME280;69153;47.918;11.428;2023-07-31T07:44:54;95171.28;;;20.04;49.45
79686;BME280;69153;47.918;11.428;2023-07-31T07:47:20;95172.34;;;20.12;49.00
79686;BME280;69153;47.918;11.428;2023-07-31T07:49:45;95170.47;;;20.23;47.62
79686;BME280;69153;47.918;11.428;2023-07-31T07:52:10;95160.88;;;20.17;47.01
79686;BME280;69153;47.918;11.428;2023-07-31T07:54:36;95161.59;;;20.12;47.64
79686;BME280;69153;47.918;11.428;2023-07-31T07:57:01;95157.06;;;20.34;46.95
79686;BME280;69153;47.918;11.428;2023-07-31T07:59:27;95147.69;;;20.61;47.25
79686;BME280;69153;47.918;11.428;2023-07-31T08:01:52;95135.69;;;20.57;46.31
79686;BME280;69153;47.918;11.428;2023-07-31T08:04:18;95143.09;;;20.79;45.95
79686;BME280;69153;47.918;11.428;2023-07-31T08:06:44;95142.88;;;20.77;45.97
79686;BME280;69153;47.918;11.428;2023-07-31T08:09:09;95131.38;;;20.82;44.99
79686;BME280;69153;47.918;11.428;2023-07-31T08:11:35;95129.16;;;20.80;45.90
79686;BME280;69153;47.918;11.428;2023-07-31T08:14:00;95122.13;;;21.16;44.66
79686;BME280;69153;47.918;11.428;2023-07-31T08:16:26;95130.28;;;21.33;44.22
79686;BME280;69153;47.918;11.428;2023-07-31T08:18:51;95146.47;;;21.55;43.67
79686;BME280;69153;47.918;11.428;2023-07-31T08:21:17;95133.75;;;21.78;43.84
79686;BME280;69153;47.918;11.428;2023-07-31T08:23:42;95139.63;;;22.10;43.16
79686;BME280;69153;47.918;11.428;2023-07-31T08:26:08;95149.22;;;22.17;43.21
79686;BME280;69153;47.918;11.428;2023-07-31T08:28:39;95137.19;;;22.12;42.57
79686;BME280;69153;47.918;11.428;2023-07-31T08:31:05;95136.19;;;22.26;43.00
79686;BME280;69153;47.918;11.428;2023-07-31T08:33:31;95141.09;;;21.94;42.51
79686;BME280;69153;47.918;11.428;2023-07-31T08:35:57;95145.06;;;22.04;42.81
79686;BME280;69153;47.918;11.428;2023-07-31T08:38:22;95133.47;;;22.26;42.26
79686;BME280;69153;47.918;11.428;2023-07-31T08:40:50;95140.53;;;22.46;42.54
79686;BME280;69153;47.918;11.428;2023-07-31T08:43:16;95140.72;;;22.65;40.93
79686;BME280;69153;47.918;11.428;2023-07-31T08:45:42;95133.38;;;22.60;41.34
79686;BME280;69153;47.918;11.428;2023-07-31T08:48:08;95132.19;;;22.55;42.04
79686;BME280;69153;47.918;11.428;2023-07-31T08:50:33;95118.63;;;22.61;41.39
79686;BME280;69153;47.918;11.428;2023-07-31T08:52:59;95110.44;;;22.08;42.54
79686;BME280;69153;47.918;11.428;2023-07-31T08:55:24;95109.44;;;22.23;42.20
79686;BME280;69153;47.918;11.428;2023-07-31T08:57:51;95110.22;;;21.79;43.25
79686;BME280;69153;47.918;11.428;2023-07-31T09:00:18;95115.59;;;21.90;42.53
79686;BME280;69153;47.918;11.428;2023-07-31T09:05:35;95124.34;;;22.52;42.03
79686;BME280;69153;47.918;11.428;2023-07-31T09:08:04;95120.59;;;22.66;41.16
79686;BME280;69153;47.918;11.428;2023-07-31T09:10:30;95121.13;;;22.53;42.84
79686;BME280;69153;47.918;11.428;2023-07-31T09:12:56;95112.69;;;22.73;40.83
79686;BME280;69153;47.918;11.428;2023-07-31T09:15:23;95116.25;;;23.09;40.38
79686;BME280;69153;47.918;11.428;2023-07-31T09:17:59;95118.59;;;23.24;40.40
79686;BME280;69153;47.918;11.428;2023-07-31T09:20:26;95116.97;;;23.51;40.26
79686;BME280;69153;47.918;11.428;2023-07-31T09:22:52;95117.69;;;23.57;40.34
79686;BME280;69153;47.918;11.428;2023-07-31T09:25:26;95119.00;;;23.39;39.72
79686;BME280;69153;47.918;11.428;2023-07-31T09:27:58;95113.94;;;22.72;41.85
79686;BME280;69153;47.918;11.428;2023-07-31T09:30:24;95114.38;;;22.93;41.79
79686;BME280;69153;47.918;11.428;2023-07-31T09:32:59;95106.94;;;23.05;42.33
79686;BME280;69153;47.918;11.428;2023-07-31T09:35:33;95111.13;;;23.41;40.60
79686;BME280;69153;47.918;11.428;2023-07-31T09:38:19;95103.97;;;23.79;40.76
79686;BME280;69153;47.918;11.428;2023-07-31T09:40:47;95096.06;;;23.81;41.06
79686;BME280;69153;47.918;11.428;2023-07-31T09:43:18;95096.09;;;24.06;41.67
79686;BME280;69153;47.918;11.428;2023-07-31T09:45:45;95091.81;;;24.16;38.74
79686;BME280;69153;47.918;11.428;2023-07-31T09:48:19;95086.09;;;24.25;40.73
79686;BME280;69153;47.918;11.428;2023-07-31T09:50:47;95093.03;;;24.15;39.12
79686;BME280;69153;47.918;11.428;2023-07-31T09:53:14;95084.41;;;23.92;39.41
79686;BME280;69153;47.918;11.428;2023-07-31T09:55:41;95090.00;;;24.00;38.79
79686;BME280;69153;47.918;11.428;2023-07-31T09:58:09;95081.66;;;23.73;40.53
79686;BME280;69153;47.918;11.428;2023-07-31T10:00:36;95068.53;;;23.53;40.04
79686;BME280;69153;47.918;11.428;2023-07-31T10:03:08;95066.31;;;23.51;39.90
79686;BME280;69153;47.918;11.428;2023-07-31T10:08:01;95063.13;;;23.17;40.59
79686;BME280;69153;47.918;11.428;2023-07-31T10:10:27;95063.63;;;23.51;39.56
79686;BME280;69153;47.918;11.428;2023-07-31T10:12:54;95053.75;;;23.54;39.23
79686;BME280;69153;47.918;11.428;2023-07-31T10:15:21;95052.63;;;23.38;39.45
79686;BME280;69153;47.918;11.428;2023-07-31T10:17:48;95055.06;;;23.42;38.76
79686;BME280;69153;47.918;11.428;2023-07-31T10:20:15;95049.34;;;22.74;40.38
79686;BME280;69153;47.918;11.428;2023-07-31T10:22:44;95036.19;;;23.01;40.60
79686;BME280;69153;47.918;11.428;2023-07-31T10:25:11;95029.97;;;23.47;40.11
79686;BME280;69153;47.918;11.428;2023-07-31T10:27:39;95023.78;;;23.76;40.51
79686;BME280;69153;47.918;11.428;2023-07-31T10:30:14;95034.72;;;23.65;38.91
79686;BME280;69153;47.918;11.428;2023-07-31T10:32:41;95035.59;;;23.49;40.06
79686;BME280;69153;47.918;11.428;2023-07-31T10:35:09;95054.09;;;23.04;39.67
79686;BME280;69153;47.918;11.428;2023-07-31T10:40:06;95033.25;;;22.99;40.14
79686;BME280;69153;47.918;11.428;2023-07-31T10:42:38;95030.94;;;23.49;39.95
79686;BME280;69153;47.918;11.428;2023-07-31T10:45:09;95029.81;;;23.64;39.03
79686;BME280;69153;47.918;11.428;2023-07-31T10:47:45;95032.53;;;24.12;38.47
79686;BME280;69153;47.918;11.428;2023-07-31T10:50:13;95030.06;;;24.39;37.21
79686;BME280;69153;47.918;11.428;2023-07-31T10:52:38;95028.97;;;24.66;37.11
79686;BME280;69153;47.918;11.428;2023-07-31T10:57:50;95028.09;;;23.91;35.33
79686;BME280;69153;47.918;11.428;2023-07-31T11:00:28;95018.34;;;23.82;35.92
79686;BME280;69153;47.918;11.428;2023-07-31T11:03:03;95022.91;;;23.68;35.94
79686;BME280;69153;47.918;11.428;2023-07-31T11:05:48;95004.84;;;23.52;36.17
79686;BME280;69153;47.918;11.428;2023-07-31T11:08:23;95003.06;;;23.84;36.11
79686;BME280;69153;47.918;11.428;2023-07-31T11:10:51;94995.41;;;23.89;35.76
79686;BME280;69153;47.918;11.428;2023-07-31T11:13:30;94992.84;;;23.96;36.12
79686;BME280;69153;47.918;11.428;2023-07-31T11:15:56;95002.53;;;24.35;35.44
79686;BME280;69153;47.918;11.428;2023-07-31T11:18:22;94996.38;;;24.34;35.79
79686;BME280;69153;47.918;11.428;2023-07-31T11:20:47;94993.75;;;24.66;35.38
79686;BME280;69153;47.918;11.428;2023-07-31T11:23:17;94993.38;;;24.75;34.46
79686;BME280;69153;47.918;11.428;2023-07-31T11:25:43;94990.22;;;24.71;35.58
79686;BME280;69153;47.918;11.428;2023-07-31T11:28:13;94984.19;;;24.97;34.04
79686;BME280;69153;47.918;11.428;2023-07-31T11:30:41;94983.13;;;25.32;34.64
79686;BME280;69153;47.918;11.428;2023-07-31T11:33:09;94979.53;;;24.79;34.23
79686;BME280;69153;47.918;11.428;2023-07-31T11:35:40;94974.88;;;24.92;33.95
79686;BME280;69153;47.918;11.428;2023-07-31T11:38:07;94973.06;;;25.01;33.76
79686;BME280;69153;47.918;11.428;2023-07-31T11:40:42;94968.81;;;25.05;33.05
79686;BME280;69153;47.918;11.428;2023-07-31T11:43:07;94948.81;;;24.89;33.02
79686;BME280;69153;47.918;11.428;2023-07-31T11:45:33;94967.34;;;25.04;33.50
79686;BME280;69153;47.918;11.428;2023-07-31T11:48:01;94936.13;;;25.43;32.51
79686;BME280;69153;47.918;11.428;2023-07-31T11:50:27;94938.56;;;24.82;33.58
79686;BME280;69153;47.918;11.428;2023-07-31T11:52:58;94940.97;;;24.86;32.73
79686;BME280;69153;47.918;11.428;2023-07-31T11:55:25;94935.63;;;24.99;32.14
79686;BME280;69153;47.918;11.428;2023-07-31T11:57:53;94931.91;;;25.15;32.29
79686;BME280;69153;47.918;11.428;2023-07-31T12:00:20;94922.66;;;25.37;32.55
79686;BME280;69153;47.918;11.428;2023-07-31T12:02:47;94922.88;;;25.39;29.91
79686;BME280;69153;47.918;11.428;2023-07-31T12:05:13;94928.81;;;25.38;29.66
79686;BME280;69153;47.918;11.428;2023-07-31T12:07:53;94919.53;;;25.46;28.77
79686;BME280;69153;47.918;11.428;2023-07-31T12:15:38;94917.66;;;24.96;30.20
79686;BME280;69153;47.918;11.428;2023-07-31T12:18:06;94909.88;;;25.06;29.74
79686;BME280;69153;47.918;11.428;2023-07-31T12:20:32;94904.06;;;24.83;30.93
79686;BME280;69153;47.918;11.428;2023-07-31T12:22:59;94905.84;;;25.25;29.91
79686;BME280;69153;47.918;11.428;2023-07-31T12:25:31;94896.34;;;25.45;30.15
79686;BME280;69153;47.918;11.428;2023-07-31T12:27:58;94898.34;;;25.18;31.01
79686;BME280;69153;47.918;11.428;2023-07-31T12:30:33;94895.28;;;25.09;30.75
79686;BME280;69153;47.918;11.428;2023-07-31T12:33:03;94883.84;;;25.29;30.02
79686;BME280;69153;47.918;11.428;2023-07-31T12:35:37;94880.06;;;25.32;30.60
79686;BME280;69153;47.918;11.428;2023-07-31T12:38:03;94875.91;;;25.18;30.94
79686;BME280;69153;47.918;11.428;2023-07-31T12:40:29;94871.09;;;25.24;30.74
79686;BME280;69153;47.918;11.428;2023-07-31T12:42:54;94862.28;;;24.91;31.23
79686;BME280;69153;47.918;11.428;2023-07-31T12:45:20;94870.84;;;24.96;30.65
79686;BME280;69153;47.918;11.428;2023-07-31T12:47:46;94849.63;;;25.13;29.62
79686;BME280;69153;47.918;11.428;2023-07-31T12:50:12;94858.59;;;25.47;29.29
79686;BME280;69153;47.918;11.428;2023-07-31T12:52:37;94850.88;;;25.51;29.57
79686;BME280;69153;47.918;11.428;2023-07-31T12:55:03;94843.16;;;25.29;26.62
79686;BME280;69153;47.918;11.428;2023-07-31T12:57:30;94864.44;;;25.51;26.90
79686;BME280;69153;47.918;11.428;2023-07-31T12:59:56;94854.22;;;25.18;27.26
79686;BME280;69153;47.918;11.428;2023-07-31T13:02:21;94862.25;;;25.23;27.30
79686;BME280;69153;47.918;11.428;2023-07-31T13:04:47;94847.53;;;25.45;27.11
79686;BME280;69153;47.918;11.428;2023-07-31T13:07:12;94852.13;;;25.63;27.79
79686;BME280;69153;47.918;11.428;2023-07-31T13:09:38;94850.03;;;25.83;27.83